Time;durP1;ratioP1;P1;durP2;ratioP2;P2;SDS_P1;SDS_P2;PMS_P1;PMS_P2;Temp;Humidity;BMP_temperature;BMP_pressure;BME280_temperature;BME280_humidity;BME280_pressure;Samples;Min_cycle;Max_cycle;Signal;HPM_P1;HPM_P2
2023/07/15 00:00:16;;;;;;;6.83;3.40;;;;;;;26.67;56.55;100129.78;5085269;28;20036;-24
2023/07/15 00:02:43;;;;;;;6.32;3.72;;;;;;;26.54;56.83;100134.31;5095813;28;20043;-24
2023/07/15 00:05:25;;;;;;;6.47;3.20;;;;;;;26.39;56.60;100121.91;5104940;28;20084;-23
2023/07/15 00:07:53;;;;;;;6.25;3.08;;;;;;;26.29;56.91;100133.19;5104610;28;20027;-24
2023/07/15 00:10:21;;;;;;;;;;;;;;;26.16;57.08;100137.69;5106041;28;20070;-24
2023/07/15 00:12:46;;;;;;;7.78;3.13;;;;;;;26.31;57.17;100139.13;5105148;28;19923;-23
2023/07/15 00:15:13;;;;;;;8.18;3.17;;;;;;;26.19;58.26;100130.78;5105050;28;20019;-24
2023/07/15 00:17:39;;;;;;;7.70;3.03;;;;;;;26.32;57.26;100143.50;5102261;28;20044;-24
2023/07/15 00:20:07;;;;;;;6.75;3.53;;;;;;;26.34;57.25;100143.97;5103821;28;20422;-24
2023/07/15 00:22:35;;;;;;;4.75;3.25;;;;;;;26.37;57.23;100143.31;5105300;28;20063;-24
2023/07/15 00:25:00;;;;;;;;;;;;;;;25.96;58.30;100139.13;5105494;28;20030;-23
2023/07/15 00:27:26;;;;;;;4.88;3.00;;;;;;;25.98;58.10;100142.34;5104831;28;19911;-23
2023/07/15 00:29:51;;;;;;;8.05;3.17;;;;;;;25.82;58.53;100139.25;5104963;28;20531;-24
2023/07/15 00:32:17;;;;;;;7.60;3.10;;;;;;;25.72;59.18;100141.50;5104907;28;20518;-23
2023/07/15 00:34:42;;;;;;;6.35;3.00;;;;;;;25.48;59.63;100153.66;5105108;28;20811;-23
2023/07/15 00:37:08;;;;;;;5.93;3.03;;;;;;;25.77;59.40;100146.81;5104983;27;20039;-24
2023/07/15 00:39:33;;;;;;;5.00;2.80;;;;;;;25.82;59.49;100149.38;5105076;28;20034;-23
2023/07/15 00:42:05;;;;;;;5.97;3.00;;;;;;;25.80;59.03;100140.69;5104773;28;20020;-23
2023/07/15 00:44:30;;;;;;;7.32;3.13;;;;;;;25.75;59.55;100149.06;5086708;28;20393;-24
2023/07/15 00:47:27;;;;;;;7.77;3.37;;;;;;;25.61;59.60;100141.78;5105094;28;20562;-24
2023/07/15 00:49:56;;;;;;;;;;;;;;;25.64;59.78;100143.06;5105084;28;20062;-23
2023/07/15 00:52:21;;;;;;;9.25;2.83;;;;;;;25.62;59.63;100140.69;5104914;28;19916;-24
2023/07/15 00:54:50;;;;;;;7.85;3.40;;;;;;;25.41;60.02;100151.38;5104740;28;20031;-23
2023/07/15 00:57:16;;;;;;;8.32;3.22;;;;;;;25.63;59.84;100147.75;5104687;28;20027;-23
2023/07/15 00:59:43;;;;;;;6.93;3.42;;;;;;;25.69;59.54;100151.13;5104663;28;20087;-24
2023/07/15 01:02:11;;;;;;;8.65;3.13;;;;;;;25.36;60.33;100142.53;5104878;28;20031;-23
2023/07/15 01:04:37;;;;;;;7.57;3.30;;;;;;;25.37;60.77;100155.84;5104044;28;20617;-25
2023/07/15 01:07:06;;;;;;;7.03;3.10;;;;;;;25.22;61.16;100148.09;5104999;28;20115;-24
2023/07/15 01:09:32;;;;;;;5.00;2.80;;;;;;;25.41;60.46;100150.56;5104292;28;20088;-26
2023/07/15 01:11:59;;;;;;;6.63;3.00;;;;;;;25.17;61.64;100146.28;5104774;28;20488;-23
2023/07/15 01:14:26;;;;;;;8.77;3.57;;;;;;;25.33;60.61;100149.41;5104456;28;20023;-24
2023/07/15 01:16:52;;;;;;;6.28;2.70;;;;;;;25.44;60.63;100145.28;5104752;28;20023;-23
2023/07/15 01:19:18;;;;;;;6.95;2.72;;;;;;;25.39;60.58;100155.53;5108574;28;20034;-24
2023/07/15 01:21:48;;;;;;;8.73;3.13;;;;;;;25.34;60.96;100151.03;5108982;28;20028;-23
2023/07/15 01:24:20;;;;;;;6.43;3.22;;;;;;;25.28;60.70;100146.84;5108703;28;20023;-24
2023/07/15 01:26:46;;;;;;;7.40;3.25;;;;;;;25.23;61.38;100153.25;5108714;28;20031;-24
2023/07/15 01:29:13;;;;;;;7.55;3.10;;;;;;;25.16;61.60;100152.84;5108558;28;20607;-24
2023/07/15 01:31:40;;;;;;;8.52;3.30;;;;;;;25.09;62.09;100157.97;5108658;28;20043;-24
2023/07/15 01:34:07;;;;;;;6.75;3.15;;;;;;;25.06;62.42;100153.13;5108573;28;20431;-24
2023/07/15 01:36:33;;;;;;;10.70;3.33;;;;;;;25.05;62.54;100155.06;5108695;28;20031;-24
2023/07/15 01:38:58;;;;;;;6.43;3.58;;;;;;;25.07;62.80;100157.47;5108348;28;20051;-24
2023/07/15 01:41:24;;;;;;;7.25;3.30;;;;;;;24.95;63.75;100146.34;5108213;28;20170;-24
2023/07/15 01:43:49;;;;;;;6.25;3.33;;;;;;;24.93;63.61;100151.28;5108480;28;20027;-24
2023/07/15 01:46:15;;;;;;;5.85;2.92;;;;;;;24.92;63.60;100157.88;5108263;28;20020;-24
2023/07/15 01:48:40;;;;;;;7.13;3.33;;;;;;;24.91;64.21;100158.97;5108352;28;20031;-24
2023/07/15 01:51:06;;;;;;;8.05;3.53;;;;;;;24.84;64.31;100160.22;5108443;28;20099;-23
2023/07/15 01:53:34;;;;;;;9.77;3.22;;;;;;;24.78;64.06;100166.94;5108251;28;20077;-24
2023/07/15 01:55:59;;;;;;;;;;;;;;;24.90;64.05;100157.38;5108944;28;20030;-25
2023/07/15 01:58:24;;;;;;;9.13;4.60;;;;;;;24.68;65.16;100164.47;5107763;28;19915;-23
2023/07/15 02:00:50;;;;;;;6.47;3.28;;;;;;;24.69;65.47;100163.34;5107845;28;20755;-23
2023/07/15 02:03:15;;;;;;;8.18;3.60;;;;;;;24.69;64.72;100166.09;5108003;28;20034;-24
2023/07/15 02:05:44;;;;;;;7.85;3.40;;;;;;;24.69;64.94;100157.91;5107737;28;20037;-24
2023/07/15 02:08:09;;;;;;;6.82;3.30;;;;;;;24.56;65.35;100158.75;5108170;28;20050;-30
2023/07/15 02:10:34;;;;;;;6.03;3.47;;;;;;;24.82;64.46;100167.13;5107953;28;20028;-24
2023/07/15 02:13:03;;;;;;;8.95;3.45;;;;;;;24.74;64.98;100165.16;5107900;28;20490;-24
2023/07/15 02:15:28;;;;;;;7.32;3.83;;;;;;;24.72;64.55;100170.91;5107727;28;20066;-24
2023/07/15 02:17:54;;;;;;;6.47;3.63;;;;;;;24.49;65.66;100164.63;5107641;28;20028;-24
2023/07/15 02:20:22;;;;;;;7.13;3.55;;;;;;;24.70;64.92;100159.50;5108035;28;20082;-24
2023/07/15 02:22:47;;;;;;;6.05;3.22;;;;;;;24.66;65.15;100159.34;5107486;28;20016;-24
2023/07/15 02:25:13;;;;;;;7.40;3.50;;;;;;;24.69;64.71;100163.34;5107059;28;20677;-25
2023/07/15 02:27:41;;;;;;;10.93;3.88;;;;;;;24.92;64.04;100168.78;5107449;28;20092;-25
2023/07/15 02:30:09;;;;;;;6.45;3.60;;;;;;;24.73;65.18;100167.06;5106302;28;20027;-24
2023/07/15 02:32:45;;;;;;;7.32;3.50;;;;;;;24.60;65.57;100159.75;5108155;28;20024;-24
2023/07/15 02:35:13;;;;;;;9.52;3.55;;;;;;;24.35;66.29;100159.22;5107256;28;20039;-26
2023/07/15 02:37:41;;;;;;;7.20;3.13;;;;;;;24.40;65.90;100166.50;5107443;28;20054;-25
2023/07/15 02:40:09;;;;;;;7.60;3.75;;;;;;;24.44;65.86;100167.50;5107302;28;20507;-24
2023/07/15 02:42:36;;;;;;;7.07;3.47;;;;;;;24.29;66.57;100167.84;5107501;28;20504;-24
2023/07/15 02:45:06;;;;;;;7.20;3.40;;;;;;;24.48;65.97;100179.38;5107082;28;20100;-24
2023/07/15 02:47:32;;;;;;;11.25;3.85;;;;;;;24.46;65.76;100173.44;5107345;28;20031;-24
2023/07/15 02:50:00;;;;;;;7.00;3.63;;;;;;;24.59;65.43;100178.03;5107102;27;20495;-25
2023/07/15 02:52:28;;;;;;;6.53;4.00;;;;;;;24.34;66.73;100179.44;5107609;28;20050;-24
2023/07/15 02:54:54;;;;;;;8.15;3.78;;;;;;;24.19;67.61;100177.88;5106705;28;20024;-24
2023/07/15 02:57:19;;;;;;;6.47;3.63;;;;;;;24.11;67.65;100175.06;5106981;28;20016;-24
2023/07/15 02:59:49;;;;;;;12.13;4.35;;;;;;;24.12;68.14;100182.13;5106799;28;20071;-24
2023/07/15 03:02:15;;;;;;;10.27;4.00;;;;;;;24.23;67.46;100186.22;5106951;28;20573;-24
2023/07/15 03:04:40;;;;;;;7.00;4.07;;;;;;;24.19;68.33;100187.94;5107038;28;20015;-24
2023/07/15 03:07:09;;;;;;;7.80;4.07;;;;;;;24.21;68.10;100177.56;5106762;28;20632;-24
2023/07/15 03:09:35;;;;;;;8.15;4.22;;;;;;;24.36;67.32;100193.56;5106517;28;20069;-24
2023/07/15 03:12:03;;;;;;;11.23;3.92;;;;;;;24.27;67.93;100192.66;5106325;28;20111;-24
2023/07/15 03:14:28;;;;;;;8.77;4.38;;;;;;;24.21;68.44;100185.72;5106591;28;20039;-24
2023/07/15 03:16:54;;;;;;;8.80;4.47;;;;;;;24.04;69.12;100200.81;5106429;28;20024;-24
2023/07/15 03:19:22;;;;;;;9.82;4.55;;;;;;;24.02;69.40;100200.31;5106300;28;20028;-24
2023/07/15 03:21:47;;;;;;;9.50;4.38;;;;;;;24.27;68.40;100195.41;5106823;28;20030;-24
2023/07/15 03:24:15;;;;;;;9.73;4.13;;;;;;;24.06;69.51;100203.22;5106111;27;20019;-24
2023/07/15 03:26:41;;;;;;;10.85;4.55;;;;;;;24.21;69.01;100202.06;5106618;27;20027;-26
2023/07/15 03:29:08;;;;;;;10.20;4.78;;;;;;;24.24;68.66;100196.81;5106325;28;20028;-24
2023/07/15 03:31:35;;;;;;;10.10;3.92;;;;;;;24.44;67.46;100200.22;5105890;28;20050;-24
2023/07/15 03:34:01;;;;;;;9.00;4.88;;;;;;;24.26;68.42;100191.06;5106163;28;20024;-24
2023/07/15 03:36:26;;;;;;;11.00;5.38;;;;;;;24.08;69.25;100202.94;5106083;28;20026;-24
2023/07/15 03:38:52;;;;;;;8.00;4.00;;;;;;;24.36;68.34;100207.19;5105824;28;20023;-24
2023/07/15 03:41:17;;;;;;;7.55;3.85;;;;;;;24.44;68.36;100217.34;5105658;28;20038;-24
2023/07/15 03:43:43;;;;;;;9.20;3.70;;;;;;;24.49;68.05;100218.34;5105937;28;20024;-25
2023/07/15 03:46:08;;;;;;;8.18;4.82;;;;;;;24.45;68.68;100223.59;5106035;28;20028;-25
2023/07/15 03:48:34;;;;;;;7.85;3.95;;;;;;;24.41;68.77;100217.97;5105729;28;20024;-25
2023/07/15 03:50:59;;;;;;;12.07;4.47;;;;;;;24.35;68.52;100219.19;5105734;28;20058;-25
2023/07/15 03:53:25;;;;;;;8.70;4.35;;;;;;;24.17;69.16;100214.69;5105722;28;20124;-25
2023/07/15 03:55:53;;;;;;;10.43;4.25;;;;;;;24.36;68.33;100212.63;5105370;28;20110;-25
2023/07/15 03:58:18;;;;;;;9.40;4.20;;;;;;;24.61;67.25;100221.38;5105787;28;20051;-24
2023/07/15 04:00:43;;;;;;;7.57;3.80;;;;;;;24.56;67.35;100224.19;5105806;28;20031;-25
2023/07/15 04:03:09;;;;;;;7.97;3.90;;;;;;;24.46;68.18;100219.78;5105983;28;20050;-25
2023/07/15 04:05:34;;;;;;;9.48;4.47;;;;;;;24.61;67.86;100224.88;5105674;28;20027;-25
2023/07/15 04:08:00;;;;;;;7.57;4.10;;;;;;;24.37;69.15;100238.78;5105305;28;20479;-26
2023/07/15 04:10:26;;;;;;;7.22;3.75;;;;;;;24.65;67.82;100239.53;5105252;28;20030;-24
2023/07/15 04:12:51;;;;;;;9.60;4.63;;;;;;;24.64;67.65;100237.09;5105841;28;20118;-24
2023/07/15 04:15:17;;;;;;;9.50;4.90;;;;;;;24.71;67.33;100242.94;5105324;28;20874;-26
2023/07/15 04:17:42;;;;;;;16.55;8.88;;;;;;;24.80;67.98;100235.59;5105479;28;20028;-25
2023/07/15 04:20:14;;;;;;;19.23;11.30;;;;;;;24.74;68.50;100231.41;5105400;28;20030;-24
2023/07/15 04:22:40;;;;;;;16.27;8.60;;;;;;;24.92;65.93;100242.44;5105244;28;20427;-25
2023/07/15 04:25:05;;;;;;;14.18;7.07;;;;;;;24.76;66.60;100231.88;5105210;28;20024;-26
2023/07/15 04:27:31;;;;;;;11.73;6.43;;;;;;;24.87;68.66;100235.19;5105393;28;20027;-26
2023/07/15 04:29:57;;;;;;;15.77;6.20;;;;;;;25.00;67.60;100228.03;5105449;28;20401;-27
2023/07/15 04:32:23;;;;;;;12.68;6.03;;;;;;;24.73;67.93;100231.72;5105140;28;20028;-25
2023/07/15 04:34:50;;;;;;;14.48;7.45;;;;;;;25.00;67.36;100242.50;5105188;28;20088;-24
2023/07/15 04:37:19;;;;;;;16.67;8.23;;;;;;;24.86;66.66;100233.56;5105186;28;20019;-24
2023/07/15 04:39:44;;;;;;;16.65;7.45;;;;;;;25.03;65.50;100243.81;5105027;28;20034;-25
2023/07/15 04:42:12;;;;;;;12.82;7.43;;;;;;;25.18;64.51;100246.13;5105347;28;20114;-25
2023/07/15 04:44:38;;;;;;;15.95;7.20;;;;;;;25.28;64.74;100249.75;5105020;27;20042;-25
2023/07/15 04:47:04;;;;;;;12.77;4.93;;;;;;;25.23;65.23;100254.25;5104997;28;20027;-25
2023/07/15 04:49:34;;;;;;;7.72;4.25;;;;;;;25.31;64.86;100254.56;5104766;28;20019;-25
2023/07/15 04:51:59;;;;;;;8.57;4.20;;;;;;;25.34;65.40;100257.50;5104156;28;20326;-25
2023/07/15 04:54:25;;;;;;;8.68;4.10;;;;;;;25.53;65.00;100262.72;5104764;28;20733;-24
2023/07/15 04:56:51;;;;;;;8.77;4.55;;;;;;;25.61;64.13;100258.41;5104576;28;20032;-25
2023/07/15 04:59:16;;;;;;;9.90;4.57;;;;;;;25.91;63.96;100256.78;5104647;28;20044;-24
2023/07/15 05:01:41;;;;;;;8.32;4.25;;;;;;;25.76;64.11;100249.00;5104380;28;20027;-26
2023/07/15 05:04:07;;;;;;;7.18;4.15;;;;;;;25.96;63.44;100255.84;5104932;28;20024;-25
2023/07/15 05:06:33;;;;;;;9.50;5.15;;;;;;;25.85;62.68;100252.56;5104484;28;20503;-25
2023/07/15 05:08:59;;;;;;;10.05;4.35;;;;;;;26.22;62.72;100251.22;5104309;28;20039;-24
2023/07/15 05:11:26;;;;;;;12.05;4.50;;;;;;;26.15;63.70;100256.34;5104465;28;20031;-25
2023/07/15 05:13:51;;;;;;;10.95;4.20;;;;;;;26.23;62.41;100262.94;5104661;28;20110;-25
2023/07/15 05:16:17;;;;;;;8.73;4.53;;;;;;;26.38;61.57;100259.78;5104657;28;20122;-24
2023/07/15 05:18:43;;;;;;;8.95;4.38;;;;;;;26.50;62.19;100261.03;5104504;28;20054;-25
2023/07/15 05:21:10;;;;;;;8.93;4.03;;;;;;;26.57;62.16;100261.38;5104537;28;20452;-24
2023/07/15 05:23:36;;;;;;;8.15;4.45;;;;;;;26.80;61.06;100254.63;5104379;28;20020;-24
2023/07/15 05:26:01;;;;;;;7.13;4.25;;;;;;;26.65;61.16;100266.09;5104511;28;20035;-24
2023/07/15 05:28:30;;;;;;;10.73;4.53;;;;;;;26.77;61.81;100260.75;5104146;28;20031;-24
2023/07/15 05:31:05;;;;;;;8.43;4.28;;;;;;;26.62;61.89;100262.06;5104657;28;20027;-24
2023/07/15 05:33:31;;;;;;;7.95;4.03;;;;;;;26.91;61.64;100257.88;5104254;28;20074;-24
2023/07/15 05:35:56;;;;;;;10.57;4.57;;;;;;;27.22;60.60;100267.78;5103959;28;20093;-24
2023/07/15 05:38:23;;;;;;;9.07;4.47;;;;;;;27.34;60.04;100267.13;5104304;28;20020;-24
2023/07/15 05:40:49;;;;;;;8.10;4.55;;;;;;;27.40;60.03;100268.53;5104375;28;20064;-24
2023/07/15 05:43:15;;;;;;;10.85;4.82;;;;;;;27.56;59.35;100285.25;5104413;28;20024;-24
2023/07/15 05:45:40;;;;;;;12.70;4.85;;;;;;;27.70;59.49;100268.59;5104398;28;20034;-24
2023/07/15 05:48:06;;;;;;;9.38;4.70;;;;;;;27.89;57.51;100273.69;5104138;28;20114;-25
2023/07/15 05:50:36;;;;;;;11.73;4.53;;;;;;;28.10;56.92;100271.00;5104451;28;20020;-24
2023/07/15 05:53:03;;;;;;;9.27;4.32;;;;;;;28.25;56.42;100273.16;5104424;28;20408;-24
2023/07/15 05:55:28;;;;;;;7.97;4.45;;;;;;;28.05;55.64;100272.81;5104031;28;20423;-24
2023/07/15 05:57:54;;;;;;;7.88;4.30;;;;;;;28.15;54.97;100273.53;5104083;28;20492;-24
2023/07/15 06:00:22;;;;;;;9.00;4.22;;;;;;;28.05;54.94;100281.03;5103776;28;20027;-24
2023/07/15 06:02:50;;;;;;;7.88;4.18;;;;;;;28.31;54.21;100277.31;5104379;28;20038;-24
2023/07/15 06:05:15;;;;;;;8.43;4.43;;;;;;;28.41;54.61;100281.59;5107899;28;20084;-23
2023/07/15 06:07:43;;;;;;;10.07;4.63;;;;;;;28.68;54.70;100274.00;5107915;28;20385;-24
2023/07/15 06:10:09;;;;;;;9.27;4.43;;;;;;;28.64;52.97;100274.66;5108148;28;20511;-24
2023/07/15 06:12:34;;;;;;;10.38;4.82;;;;;;;28.43;53.30;100276.59;5107551;28;20020;-23
2023/07/15 06:15:00;;;;;;;6.97;3.90;;;;;;;28.50;53.32;100276.06;5108216;28;20085;-23
2023/07/15 06:17:25;;;;;;;6.57;4.10;;;;;;;28.74;53.85;100273.44;5107479;28;20031;-23
2023/07/15 06:19:50;;;;;;;13.50;7.47;;;;;;;28.65;53.33;100267.25;5107804;28;20043;-24
2023/07/15 06:22:16;;;;;;;7.90;4.28;;;;;;;28.52;53.36;100268.31;5107718;28;20068;-24
2023/07/15 06:24:42;;;;;;;9.27;4.88;;;;;;;28.70;52.19;100266.22;5107864;28;20084;-24
2023/07/15 06:27:07;;;;;;;8.68;5.03;;;;;;;28.88;52.11;100269.63;5107674;28;20028;-24
2023/07/15 06:29:34;;;;;;;9.13;4.30;;;;;;;29.31;50.71;100268.41;5107243;28;20027;-23
2023/07/15 06:31:59;;;;;;;9.05;4.97;;;;;;;29.06;50.90;100276.56;5107475;28;20114;-24
2023/07/15 06:34:25;;;;;;;9.38;4.97;;;;;;;28.92;51.54;100267.81;5107599;28;20115;-23
2023/07/15 06:36:50;;;;;;;9.18;4.68;;;;;;;29.04;52.07;100265.09;5107504;28;20042;-23
2023/07/15 06:39:16;;;;;;;8.77;4.78;;;;;;;29.07;51.36;100258.94;5106937;28;20106;-25
2023/07/15 06:41:42;;;;;;;9.40;5.10;;;;;;;29.40;51.61;100260.84;5107244;28;20439;-24
2023/07/15 06:44:08;;;;;;;9.20;5.35;;;;;;;29.41;50.53;100268.75;5106824;28;20512;-24
2023/07/15 06:46:33;;;;;;;9.80;5.10;;;;;;;29.49;50.40;100269.81;5107096;28;20258;-24
2023/07/15 06:48:58;;;;;;;9.70;4.72;;;;;;;29.53;50.21;100265.22;5107159;28;20027;-24
2023/07/15 06:51:24;;;;;;;8.20;5.00;;;;;;;29.44;49.52;100270.84;5107000;28;20020;-24
2023/07/15 06:53:49;;;;;;;10.25;5.07;;;;;;;29.30;50.65;100270.34;5107352;28;20036;-24
2023/07/15 06:56:15;;;;;;;9.20;5.10;;;;;;;29.76;50.20;100265.59;5106776;28;20031;-25
2023/07/15 06:58:41;;;;;;;8.73;4.68;;;;;;;29.68;49.61;100265.69;5107042;28;20047;-24
2023/07/15 07:01:06;;;;;;;9.82;5.05;;;;;;;29.62;50.28;100265.13;5106625;27;20019;-24
2023/07/15 07:03:33;;;;;;;11.68;5.47;;;;;;;29.92;49.91;100282.22;5107000;28;20496;-24
2023/07/15 07:05:58;;;;;;;16.93;6.40;;;;;;;29.90;50.17;100273.50;5106580;28;20036;-24
2023/07/15 07:08:24;;;;;;;9.32;4.85;;;;;;;29.89;50.52;100269.16;5106660;28;20398;-26
2023/07/15 07:10:57;;;;;;;9.65;4.93;;;;;;;30.11;50.54;100264.31;5106979;27;20111;-24
2023/07/15 07:13:24;;;;;;;10.10;4.80;;;;;;;30.40;49.60;100274.25;5106722;28;20034;-23
2023/07/15 07:15:50;;;;;;;9.57;5.30;;;;;;;30.54;48.38;100282.16;5106158;27;20419;-23
2023/07/15 07:18:15;;;;;;;11.95;5.20;;;;;;;30.86;47.47;100274.00;5106610;28;20042;-23
2023/07/15 07:20:44;;;;;;;10.95;5.22;;;;;;;30.64;50.29;100268.69;5106475;28;20019;-24
2023/07/15 07:23:09;;;;;;;10.73;4.93;;;;;;;30.58;48.21;100275.59;5107149;28;20030;-26
2023/07/15 07:25:40;;;;;;;11.38;4.80;;;;;;;30.33;49.36;100279.56;5106436;28;20023;-23
2023/07/15 07:28:08;;;;;;;6.40;4.47;;;;;;;30.35;49.14;100278.06;5106509;28;20111;-24
2023/07/15 07:30:36;;;;;;;12.95;5.40;;;;;;;30.36;49.04;100276.94;5106409;28;20050;-24
2023/07/15 07:33:03;;;;;;;11.18;5.05;;;;;;;30.66;48.86;100271.09;5106245;27;20020;-24
2023/07/15 07:35:29;;;;;;;10.52;7.45;;;;;;;30.82;48.66;100269.19;5106145;28;20047;-23
2023/07/15 07:37:54;;;;;;;14.25;8.27;;;;;;;31.16;48.03;100274.44;5104463;28;20420;-24
2023/07/15 07:40:20;;;;;;;9.23;5.97;;;;;;;31.17;47.45;100276.06;5106382;28;20488;-24
2023/07/15 07:42:45;;;;;;;11.63;5.95;;;;;;;31.16;46.77;100269.75;5106261;28;20047;-23
2023/07/15 07:45:15;;;;;;;11.30;5.60;;;;;;;31.07;46.58;100260.84;5105935;28;20035;-24
2023/07/15 07:47:40;;;;;;;14.75;6.45;;;;;;;31.36;46.00;100259.59;5106268;28;20073;-23
2023/07/15 07:50:06;;;;;;;17.02;6.30;;;;;;;31.32;47.40;100263.44;5105524;28;20187;-23
2023/07/15 07:52:34;;;;;;;11.15;5.75;;;;;;;31.46;46.63;100261.06;5106079;28;20035;-23
2023/07/15 07:55:00;;;;;;;10.25;5.85;;;;;;;31.63;46.09;100254.41;5106021;28;20024;-23
2023/07/15 07:57:26;;;;;;;9.40;5.45;;;;;;;31.73;45.53;100267.66;5105978;28;20024;-25
2023/07/15 07:59:52;;;;;;;8.43;5.57;;;;;;;31.52;45.03;100262.41;5105655;27;20039;-25
2023/07/15 08:02:17;;;;;;;10.07;5.80;;;;;;;31.70;44.66;100262.06;5105777;28;20062;-23
2023/07/15 08:04:42;;;;;;;13.05;5.82;;;;;;;32.16;44.78;100262.34;5105907;28;20715;-23
2023/07/15 08:07:10;;;;;;;9.52;5.65;;;;;;;32.34;44.16;100269.03;5105558;28;20020;-23
2023/07/15 08:09:35;;;;;;;11.70;5.72;;;;;;;32.65;42.57;100261.81;5105607;28;20047;-23
2023/07/15 08:12:01;;;;;;;9.20;5.45;;;;;;;32.69;42.40;100270.97;5105329;28;20028;-25
2023/07/15 08:14:26;;;;;;;9.13;5.95;;;;;;;32.30;42.78;100267.38;5105621;28;20466;-24
2023/07/15 08:16:52;;;;;;;11.98;5.82;;;;;;;32.87;42.34;100267.75;5105520;28;20424;-24
2023/07/15 08:19:22;;;;;;;9.50;5.10;;;;;;;32.74;41.31;100267.13;5105660;28;20028;-24
2023/07/15 08:21:47;;;;;;;8.52;5.70;;;;;;;32.77;41.47;100264.41;5105582;28;20027;-25
2023/07/15 08:24:13;;;;;;;9.43;5.63;;;;;;;32.76;40.05;100260.06;5105778;28;20016;-24
2023/07/15 08:26:41;;;;;;;10.27;5.38;;;;;;;33.05;41.74;100255.09;5104611;28;20094;-25
2023/07/15 08:29:06;;;;;;;9.18;5.00;;;;;;;32.61;42.15;100261.75;5104303;28;20035;-25
2023/07/15 08:31:34;;;;;;;8.85;5.20;;;;;;;32.55;41.22;100263.22;5105025;28;20031;-25
2023/07/15 08:33:59;;;;;;;8.55;4.65;;;;;;;32.95;41.13;100263.97;5105086;28;20506;-25
2023/07/15 08:36:25;;;;;;;7.78;5.00;;;;;;;33.01;41.89;100257.78;5104144;28;20024;-25
2023/07/15 08:38:53;;;;;;;10.10;5.70;;;;;;;33.21;39.85;100260.53;5104976;28;20029;-28
2023/07/15 08:41:23;;;;;;;9.32;5.38;;;;;;;32.96;39.99;100249.81;5105003;28;20024;-25
2023/07/15 08:43:48;;;;;;;8.35;5.22;;;;;;;32.93;40.11;100253.28;5104966;28;20419;-25
2023/07/15 08:46:26;;;;;;;10.98;5.57;;;;;;;33.26;39.49;100253.91;5104739;28;20520;-25
2023/07/15 08:48:53;;;;;;;9.60;5.68;;;;;;;33.08;40.55;100250.78;5104773;28;20067;-25
2023/07/15 08:51:25;;;;;;;9.68;5.50;;;;;;;33.45;40.44;100245.56;5105207;28;20032;-25
2023/07/15 08:53:52;;;;;;;10.32;5.43;;;;;;;33.39;39.80;100250.59;5104621;28;20794;-26
2023/07/15 08:56:21;;;;;;;9.23;5.47;;;;;;;33.60;39.32;100250.13;5104898;28;20032;-25
2023/07/15 08:58:47;;;;;;;8.25;5.55;;;;;;;33.59;38.62;100253.25;5104994;27;20044;-26
2023/07/15 09:01:14;;;;;;;11.15;5.90;;;;;;;33.70;38.27;100247.94;5104338;28;20055;-25
2023/07/15 09:03:42;;;;;;;11.38;5.60;;;;;;;34.11;39.28;100253.66;5104915;28;20027;-26
2023/07/15 09:06:08;;;;;;;11.68;5.68;;;;;;;33.50;38.29;100253.50;5104730;28;20023;-24
2023/07/15 09:08:34;;;;;;;11.27;5.33;;;;;;;33.96;37.26;100250.72;5104735;28;20024;-23
2023/07/15 09:14:21;;;;;;;10.20;5.10;;;;;;;34.07;38.13;100248.06;5091906;28;20543;-24
2023/07/15 09:16:51;;;;;;;10.00;5.30;;;;;;;34.16;37.31;100259.72;5091377;28;20020;-24
2023/07/15 09:19:19;;;;;;;11.93;6.10;;;;;;;34.47;37.60;100251.38;5083401;28;20539;-24
2023/07/15 09:22:05;;;;;;;7.47;5.13;;;;;;;34.73;37.00;100256.84;5083314;28;20077;-25
2023/07/15 09:24:32;;;;;;;10.20;6.05;;;;;;;34.79;36.24;100252.56;5083513;28;20051;-24
2023/07/15 09:27:00;;;;;;;10.82;5.28;;;;;;;34.67;35.68;100247.28;5083892;28;20063;-25
2023/07/15 09:29:26;;;;;;;8.73;5.75;;;;;;;34.61;35.82;100251.53;5084060;28;20032;-24
2023/07/15 09:31:52;;;;;;;13.07;5.53;;;;;;;34.87;35.77;100242.38;5084082;28;20081;-24
2023/07/15 09:34:18;;;;;;;7.57;5.00;;;;;;;35.21;36.44;100245.91;5084330;28;20028;-24
2023/07/15 09:36:46;;;;;;;9.73;5.67;;;;;;;34.74;35.20;100244.63;5084293;28;20020;-25
2023/07/15 09:39:13;;;;;;;8.32;5.45;;;;;;;35.03;36.34;100233.81;5086181;28;20120;-24
2023/07/15 09:41:39;;;;;;;11.25;5.38;;;;;;;35.10;34.82;100242.19;5087944;28;20020;-26
2023/07/15 09:44:04;;;;;;;10.50;5.37;;;;;;;34.99;34.76;100244.88;5088140;28;20549;-25
2023/07/15 09:46:31;;;;;;;8.63;4.93;;;;;;;34.52;34.30;100243.53;5087988;28;20548;-24
2023/07/15 09:48:57;;;;;;;9.65;5.20;;;;;;;34.91;34.67;100237.66;5099299;28;20104;-24
2023/07/15 09:51:24;;;;;;;7.82;4.90;;;;;;;35.04;33.94;100229.84;5101788;28;20036;-24
2023/07/15 09:53:56;;;;;;;;;;;;;;;34.98;33.95;100234.97;5095221;28;20027;-28
2023/07/15 09:56:23;;;;;;;12.07;5.53;;;;;;;34.97;34.83;100218.72;5087125;28;20858;-25
2023/07/15 09:58:49;;;;;;;;;;;;;;;35.32;35.32;100228.56;5107166;28;20130;-25
2023/07/15 10:01:31;;;;;;;10.07;5.25;;;;;;;34.64;33.54;100223.09;5105599;28;19976;-26
2023/07/15 10:04:24;;;;;;;9.20;5.20;;;;;;;35.08;33.91;100224.34;5107123;28;20038;-24
2023/07/15 10:06:51;;;;;;;9.05;5.30;;;;;;;35.20;33.54;100226.88;5107834;28;20043;-24
2023/07/15 10:09:18;;;;;;;11.35;5.47;;;;;;;35.28;34.41;100216.66;5107719;28;20500;-24
2023/07/15 10:11:44;;;;;;;9.85;4.95;;;;;;;35.48;34.37;100214.44;5106352;28;20035;-25
2023/07/15 10:14:10;;;;;;;8.57;4.97;;;;;;;35.66;33.77;100214.59;5098709;28;20178;-24
2023/07/15 10:16:36;;;;;;;11.73;5.05;;;;;;;35.79;34.29;100202.75;5087415;28;20099;-24
2023/07/15 10:19:02;;;;;;;8.43;4.65;;;;;;;35.97;32.65;100216.75;5098175;28;20147;-24
2023/07/15 10:21:28;;;;;;;11.20;5.43;;;;;;;35.77;32.67;100213.44;5107471;28;20071;-25
2023/07/15 10:24:17;;;;;;;10.07;5.20;;;;;;;35.37;32.59;100215.16;5107626;28;20095;-24
2023/07/15 10:26:49;;;;;;;9.52;4.80;;;;;;;35.79;31.57;100201.97;5090154;28;20085;-24
2023/07/15 10:29:16;;;;;;;10.07;5.40;;;;;;;35.59;32.43;100201.41;5087224;28;20649;-24
2023/07/15 10:31:42;;;;;;;11.98;5.45;;;;;;;35.35;33.16;100203.66;5087353;28;20035;-24
2023/07/15 10:34:09;;;;;;;10.55;5.10;;;;;;;35.33;34.06;100194.91;5087437;28;20024;-24
2023/07/15 10:36:37;;;;;;;11.27;5.45;;;;;;;35.14;32.59;100198.66;5088552;28;20040;-24
2023/07/15 10:39:17;;;;;;;9.60;5.40;;;;;;;35.13;32.70;100199.88;5086887;28;20059;-25
2023/07/15 10:41:51;;;;;;;7.93;5.28;;;;;;;35.58;33.53;100189.53;5087135;28;20063;-24
2023/07/15 10:44:20;;;;;;;8.15;4.75;;;;;;;35.92;31.70;100208.81;5093057;28;20621;-24
2023/07/15 10:46:52;;;;;;;10.65;5.60;;;;;;;36.12;31.96;100192.63;5092091;28;20036;-24
2023/07/15 10:49:21;;;;;;;9.35;4.68;;;;;;;36.26;32.40;100186.38;5093332;28;20085;-25
2023/07/15 10:51:47;;;;;;;5.97;4.05;;;;;;;36.51;31.55;100191.19;5103745;28;20076;-24
2023/07/15 10:54:18;;;;;;;9.65;4.82;;;;;;;36.77;30.96;100190.88;5106279;28;20027;-24
2023/07/15 10:56:45;;;;;;;9.77;5.20;;;;;;;36.92;31.49;100188.94;5098313;28;20047;-24
2023/07/15 10:59:11;;;;;;;9.10;4.20;;;;;;;37.00;30.69;100179.41;5100090;28;20120;-26
2023/07/15 11:01:36;;;;;;;10.32;5.43;;;;;;;36.72;31.38;100179.34;5101581;28;20081;-22
2023/07/15 11:04:05;;;;;;;9.90;4.68;;;;;;;36.40;30.71;100169.75;5090980;28;20038;-23
2023/07/15 11:06:33;;;;;;;8.50;4.10;;;;;;;36.55;30.43;100170.56;5094136;28;20218;-23
2023/07/15 11:08:59;;;;;;;8.82;4.88;;;;;;;36.92;31.63;100163.91;5103118;28;20027;-23
2023/07/15 11:11:24;;;;;;;10.10;4.57;;;;;;;37.27;31.23;100167.09;5106619;28;20023;-23
2023/07/15 11:13:49;;;;;;;8.00;4.88;;;;;;;37.28;29.98;100171.47;5096222;28;20051;-23
2023/07/15 11:16:15;;;;;;;9.95;4.72;;;;;;;37.10;30.78;100163.91;5106523;28;20119;-24
2023/07/15 11:18:40;;;;;;;9.90;4.75;;;;;;;37.11;29.64;100167.53;5106718;28;20027;-24
2023/07/15 11:21:06;;;;;;;9.85;5.05;;;;;;;37.41;30.67;100167.06;5106747;28;20671;-23
2023/07/15 11:23:34;;;;;;;9.38;5.05;;;;;;;37.74;29.49;100162.25;5106505;28;20042;-24
2023/07/15 11:26:09;;;;;;;15.38;5.28;;;;;;;37.39;29.94;100156.38;5106069;28;20054;-24